sensor_id;sensor_type;location;lat;lon;timestamp;P1;durP1;ratioP1;P2;durP2;ratioP2
52434;SDS011;38354;52.892;6.148;2023-04-29T04:03:01;56.33;;;26.73;;
52434;SDS011;38354;52.892;6.148;2023-04-29T04:05:27;59.63;;;25.85;;
52434;SDS011;38354;52.892;6.148;2023-04-29T04:07:53;56.13;;;25.73;;
52434;SDS011;38354;52.892;6.148;2023-04-29T04:10:19;60.92;;;26.80;;
52434;SDS011;38354;52.892;6.148;2023-04-29T04:12:45;60.65;;;26.75;;
52434;SDS011;38354;52.892;6.148;2023-04-29T04:15:11;61.80;;;27.48;;
52434;SDS011;38354;52.892;6.148;2023-04-29T04:17:37;57.63;;;25.63;;
52434;SDS011;38354;52.892;6.148;2023-04-29T04:20:03;59.85;;;28.13;;
52434;SDS011;38354;52.892;6.148;2023-04-29T04:22:29;66.15;;;27.13;;
52434;SDS011;38354;52.892;6.148;2023-04-29T04:24:55;60.58;;;25.98;;
52434;SDS011;38354;52.892;6.148;2023-04-29T04:27:21;56.03;;;26.40;;
52434;SDS011;38354;52.892;6.148;2023-04-29T04:29:47;58.22;;;26.27;;
52434;SDS011;38354;52.892;6.148;2023-04-29T04:32:13;52.00;;;24.55;;
52434;SDS011;38354;52.892;6.148;2023-04-29T04:34:38;52.20;;;24.58;;
52434;SDS011;38354;52.892;6.148;2023-04-29T04:37:04;54.13;;;24.30;;
52434;SDS011;38354;52.892;6.148;2023-04-29T04:39:30;51.80;;;23.98;;
52434;SDS011;38354;52.892;6.148;2023-04-29T04:41:56;48.67;;;23.48;;
52434;SDS011;38354;52.892;6.148;2023-04-29T04:44:22;49.03;;;23.02;;
52434;SDS011;38354;52.892;6.148;2023-04-29T04:46:49;48.55;;;22.55;;
52434;SDS011;38354;52.892;6.148;2023-04-29T04:49:15;46.58;;;22.25;;
52434;SDS011;38354;52.892;6.148;2023-04-29T04:51:42;44.65;;;21.88;;
52434;SDS011;38354;52.892;6.148;2023-04-29T04:54:09;46.90;;;20.92;;
52434;SDS011;38354;52.892;6.148;2023-04-29T04:56:35;41.92;;;19.83;;
52434;SDS011;38354;52.892;6.148;2023-04-29T04:59:01;36.65;;;19.60;;
52434;SDS011;38354;52.892;6.148;2023-04-29T05:01:27;54.67;;;21.70;;
52434;SDS011;38354;52.892;6.148;2023-04-29T05:03:53;45.83;;;19.35;;
52434;SDS011;38354;52.892;6.148;2023-04-29T05:06:19;38.75;;;18.90;;
52434;SDS011;38354;52.892;6.148;2023-04-29T05:08:45;36.03;;;18.70;;
52434;SDS011;38354;52.892;6.148;2023-04-29T05:11:14;32.55;;;16.17;;
52434;SDS011;38354;52.892;6.148;2023-04-29T05:13:41;35.50;;;16.17;;
52434;SDS011;38354;52.892;6.148;2023-04-29T05:16:07;38.80;;;15.90;;
52434;SDS011;38354;52.892;6.148;2023-04-29T05:18:32;35.28;;;16.95;;
52434;SDS011;38354;52.892;6.148;2023-04-29T05:20:58;30.23;;;14.32;;
52434;SDS011;38354;52.892;6.148;2023-04-29T05:23:24;28.65;;;13.95;;
52434;SDS011;38354;52.892;6.148;2023-04-29T05:25:50;26.80;;;13.57;;
52434;SDS011;38354;52.892;6.148;2023-04-29T05:28:16;31.00;;;13.95;;
52434;SDS011;38354;52.892;6.148;2023-04-29T05:30:41;28.23;;;13.15;;
52434;SDS011;38354;52.892;6.148;2023-04-29T05:33:07;23.70;;;12.60;;
52434;SDS011;38354;52.892;6.148;2023-04-29T05:35:33;20.75;;;12.60;;
52434;SDS011;38354;52.892;6.148;2023-04-29T05:37:58;25.15;;;12.63;;
52434;SDS011;38354;52.892;6.148;2023-04-29T05:40:24;24.30;;;11.48;;
52434;SDS011;38354;52.892;6.148;2023-04-29T05:42:50;28.35;;;11.60;;
52434;SDS011;38354;52.892;6.148;2023-04-29T05:45:16;22.73;;;10.52;;
52434;SDS011;38354;52.892;6.148;2023-04-29T05:47:41;25.98;;;12.23;;
52434;SDS011;38354;52.892;6.148;2023-04-29T05:50:07;23.40;;;10.23;;
52434;SDS011;38354;52.892;6.148;2023-04-29T05:52:33;22.80;;;10.77;;
52434;SDS011;38354;52.892;6.148;2023-04-29T05:54:58;22.67;;;9.98;;
52434;SDS011;38354;52.892;6.148;2023-04-29T05:57:24;25.20;;;11.15;;
52434;SDS011;38354;52.892;6.148;2023-04-29T05:59:49;20.05;;;10.63;;
52434;SDS011;38354;52.892;6.148;2023-04-29T06:02:15;20.83;;;10.95;;
52434;SDS011;38354;52.892;6.148;2023-04-29T06:04:41;18.90;;;9.95;;
52434;SDS011;38354;52.892;6.148;2023-04-29T06:07:07;21.45;;;10.18;;
52434;SDS011;38354;52.892;6.148;2023-04-29T06:09:36;21.17;;;9.40;;
52434;SDS011;38354;52.892;6.148;2023-04-29T06:12:02;21.17;;;10.57;;
52434;SDS011;38354;52.892;6.148;2023-04-29T06:14:28;21.10;;;9.85;;
52434;SDS011;38354;52.892;6.148;2023-04-29T06:16:54;20.17;;;9.45;;
52434;SDS011;38354;52.892;6.148;2023-04-29T06:19:20;19.65;;;10.57;;
52434;SDS011;38354;52.892;6.148;2023-04-29T06:21:45;19.90;;;9.70;;
52434;SDS011;38354;52.892;6.148;2023-04-29T06:24:11;18.20;;;9.90;;
52434;SDS011;38354;52.892;6.148;2023-04-29T06:26:37;19.25;;;8.70;;
52434;SDS011;38354;52.892;6.148;2023-04-29T06:29:02;20.10;;;9.98;;
52434;SDS011;38354;52.892;6.148;2023-04-29T06:31:28;21.05;;;9.77;;
52434;SDS011;38354;52.892;6.148;2023-04-29T06:33:54;21.35;;;9.07;;
52434;SDS011;38354;52.892;6.148;2023-04-29T06:36:19;20.90;;;9.38;;
52434;SDS011;38354;52.892;6.148;2023-04-29T06:38:45;20.25;;;9.00;;
52434;SDS011;38354;52.892;6.148;2023-04-29T06:41:10;18.10;;;9.75;;
52434;SDS011;38354;52.892;6.148;2023-04-29T06:43:36;18.60;;;8.98;;
52434;SDS011;38354;52.892;6.148;2023-04-29T06:46:02;18.90;;;9.13;;
52434;SDS011;38354;52.892;6.148;2023-04-29T06:48:28;15.93;;;9.23;;
52434;SDS011;38354;52.892;6.148;2023-04-29T06:50:54;18.25;;;9.00;;
52434;SDS011;38354;52.892;6.148;2023-04-29T06:53:21;19.05;;;9.70;;
52434;SDS011;38354;52.892;6.148;2023-04-29T06:55:47;18.88;;;8.45;;
52434;SDS011;38354;52.892;6.148;2023-04-29T06:58:13;18.40;;;8.25;;
52434;SDS011;38354;52.892;6.148;2023-04-29T07:00:42;24.48;;;8.98;;
52434;SDS011;38354;52.892;6.148;2023-04-29T07:03:09;21.45;;;8.95;;
52434;SDS011;38354;52.892;6.148;2023-04-29T07:05:35;21.23;;;9.15;;
52434;SDS011;38354;52.892;6.148;2023-04-29T07:08:03;22.23;;;9.75;;
52434;SDS011;38354;52.892;6.148;2023-04-29T07:10:29;17.95;;;9.05;;
52434;SDS011;38354;52.892;6.148;2023-04-29T07:12:55;16.85;;;8.73;;
52434;SDS011;38354;52.892;6.148;2023-04-29T07:15:21;18.17;;;8.73;;
52434;SDS011;38354;52.892;6.148;2023-04-29T07:17:46;19.45;;;9.07;;
52434;SDS011;38354;52.892;6.148;2023-04-29T07:20:12;18.92;;;9.38;;
52434;SDS011;38354;52.892;6.148;2023-04-29T07:22:38;17.60;;;9.30;;
52434;SDS011;38354;52.892;6.148;2023-04-29T07:25:04;17.40;;;7.78;;
52434;SDS011;38354;52.892;6.148;2023-04-29T07:27:31;18.27;;;8.27;;
52434;SDS011;38354;52.892;6.148;2023-04-29T07:29:58;13.88;;;8.32;;
52434;SDS011;38354;52.892;6.148;2023-04-29T07:32:25;18.50;;;8.52;;
52434;SDS011;38354;52.892;6.148;2023-04-29T07:34:51;20.00;;;8.52;;
52434;SDS011;38354;52.892;6.148;2023-04-29T07:37:19;17.45;;;8.52;;
52434;SDS011;38354;52.892;6.148;2023-04-29T07:39:45;18.05;;;7.70;;
52434;SDS011;38354;52.892;6.148;2023-04-29T07:42:11;14.73;;;8.52;;
52434;SDS011;38354;52.892;6.148;2023-04-29T07:44:36;14.77;;;7.82;;
52434;SDS011;38354;52.892;6.148;2023-04-29T07:47:02;14.52;;;8.05;;
52434;SDS011;38354;52.892;6.148;2023-04-29T07:49:28;17.67;;;8.60;;
52434;SDS011;38354;52.892;6.148;2023-04-29T07:51:53;18.80;;;8.35;;
52434;SDS011;38354;52.892;6.148;2023-04-29T07:54:19;16.65;;;8.32;;
52434;SDS011;38354;52.892;6.148;2023-04-29T07:56:46;15.30;;;7.43;;
52434;SDS011;38354;52.892;6.148;2023-04-29T07:59:12;16.30;;;8.20;;
52434;SDS011;38354;52.892;6.148;2023-04-29T08:01:41;14.95;;;7.53;;
52434;SDS011;38354;52.892;6.148;2023-04-29T08:04:07;17.40;;;8.25;;
52434;SDS011;38354;52.892;6.148;2023-04-29T08:06:33;20.27;;;8.55;;
52434;SDS011;38354;52.892;6.148;2023-04-29T08:08:59;14.52;;;7.07;;
52434;SDS011;38354;52.892;6.148;2023-04-29T08:11:25;13.98;;;8.20;;
52434;SDS011;38354;52.892;6.148;2023-04-29T08:13:51;13.43;;;7.90;;
52434;SDS011;38354;52.892;6.148;2023-04-29T08:16:18;16.98;;;8.02;;
52434;SDS011;38354;52.892;6.148;2023-04-29T08:18:48;15.00;;;7.93;;
52434;SDS011;38354;52.892;6.148;2023-04-29T08:21:14;13.30;;;7.70;;
52434;SDS011;38354;52.892;6.148;2023-04-29T08:23:39;15.82;;;8.00;;
52434;SDS011;38354;52.892;6.148;2023-04-29T08:26:05;14.52;;;7.40;;
52434;SDS011;38354;52.892;6.148;2023-04-29T08:28:31;16.42;;;8.00;;
52434;SDS011;38354;52.892;6.148;2023-04-29T08:30:56;14.23;;;8.15;;
52434;SDS011;38354;52.892;6.148;2023-04-29T08:33:22;15.70;;;8.15;;
52434;SDS011;38354;52.892;6.148;2023-04-29T08:35:48;15.88;;;8.05;;
52434;SDS011;38354;52.892;6.148;2023-04-29T08:38:21;16.95;;;7.50;;
52434;SDS011;38354;52.892;6.148;2023-04-29T08:40:47;15.90;;;7.53;;
52434;SDS011;38354;52.892;6.148;2023-04-29T08:43:13;14.93;;;7.40;;
52434;SDS011;38354;52.892;6.148;2023-04-29T08:45:41;17.23;;;7.50;;
52434;SDS011;38354;52.892;6.148;2023-04-29T08:48:08;17.02;;;7.78;;
52434;SDS011;38354;52.892;6.148;2023-04-29T08:50:38;14.85;;;6.60;;
52434;SDS011;38354;52.892;6.148;2023-04-29T08:53:08;16.40;;;7.63;;
52434;SDS011;38354;52.892;6.148;2023-04-29T08:55:39;13.18;;;7.28;;
52434;SDS011;38354;52.892;6.148;2023-04-29T08:58:05;17.50;;;6.75;;
52434;SDS011;38354;52.892;6.148;2023-04-29T09:00:32;13.15;;;6.82;;
52434;SDS011;38354;52.892;6.148;2023-04-29T09:02:59;9.60;;;6.40;;
52434;SDS011;38354;52.892;6.148;2023-04-29T09:05:31;11.90;;;6.38;;
52434;SDS011;38354;52.892;6.148;2023-04-29T09:07:58;12.50;;;6.20;;
52434;SDS011;38354;52.892;6.148;2023-04-29T09:10:27;13.75;;;6.63;;
52434;SDS011;38354;52.892;6.148;2023-04-29T09:12:56;11.38;;;6.45;;
52434;SDS011;38354;52.892;6.148;2023-04-29T09:15:22;16.55;;;6.45;;
52434;SDS011;38354;52.892;6.148;2023-04-29T09:17:48;14.20;;;6.38;;
52434;SDS011;38354;52.892;6.148;2023-04-29T09:22:52;10.35;;;5.60;;
52434;SDS011;38354;52.892;6.148;2023-04-29T09:25:19;12.68;;;6.70;;
52434;SDS011;38354;52.892;6.148;2023-04-29T09:27:45;11.23;;;6.30;;
52434;SDS011;38354;52.892;6.148;2023-04-29T09:30:11;12.43;;;6.78;;
52434;SDS011;38354;52.892;6.148;2023-04-29T09:32:39;12.02;;;6.53;;
52434;SDS011;38354;52.892;6.148;2023-04-29T09:35:24;12.55;;;6.35;;
52434;SDS011;38354;52.892;6.148;2023-04-29T09:37:51;12.45;;;6.30;;
52434;SDS011;38354;52.892;6.148;2023-04-29T09:40:31;12.80;;;6.57;;
52434;SDS011;38354;52.892;6.148;2023-04-29T09:42:58;13.68;;;6.97;;
52434;SDS011;38354;52.892;6.148;2023-04-29T09:45:34;10.35;;;6.10;;
52434;SDS011;38354;52.892;6.148;2023-04-29T09:48:03;11.82;;;5.90;;
52434;SDS011;38354;52.892;6.148;2023-04-29T09:50:30;11.88;;;6.25;;
52434;SDS011;38354;52.892;6.148;2023-04-29T09:52:57;13.23;;;5.97;;
52434;SDS011;38354;52.892;6.148;2023-04-29T09:55:24;11.15;;;5.53;;
52434;SDS011;38354;52.892;6.148;2023-04-29T09:57:51;10.45;;;5.97;;
52434;SDS011;38354;52.892;6.148;2023-04-29T10:00:17;11.82;;;6.20;;
52434;SDS011;38354;52.892;6.148;2023-04-29T10:02:46;11.10;;;5.70;;
52434;SDS011;38354;52.892;6.148;2023-04-29T10:05:13;10.40;;;5.60;;
52434;SDS011;38354;52.892;6.148;2023-04-29T10:07:40;10.75;;;5.53;;
52434;SDS011;38354;52.892;6.148;2023-04-29T10:10:06;10.32;;;5.95;;
52434;SDS011;38354;52.892;6.148;2023-04-29T10:12:36;14.45;;;6.13;;
52434;SDS011;38354;52.892;6.148;2023-04-29T10:15:26;11.30;;;5.47;;
52434;SDS011;38354;52.892;6.148;2023-04-29T10:18:13;11.63;;;5.40;;
52434;SDS011;38354;52.892;6.148;2023-04-29T10:20:45;10.68;;;5.60;;
52434;SDS011;38354;52.892;6.148;2023-04-29T10:23:12;11.38;;;6.03;;
52434;SDS011;38354;52.892;6.148;2023-04-29T10:25:40;11.77;;;5.80;;
52434;SDS011;38354;52.892;6.148;2023-04-29T10:28:08;12.55;;;6.20;;
52434;SDS011;38354;52.892;6.148;2023-04-29T10:30:41;9.52;;;5.75;;
52434;SDS011;38354;52.892;6.148;2023-04-29T10:33:09;14.05;;;5.63;;
52434;SDS011;38354;52.892;6.148;2023-04-29T10:35:39;10.48;;;5.43;;
52434;SDS011;38354;52.892;6.148;2023-04-29T10:38:55;8.23;;;4.97;;
52434;SDS011;38354;52.892;6.148;2023-04-29T10:40:59;9.40;;;5.28;;
52434;SDS011;38354;52.892;6.148;2023-04-29T10:43:30;8.25;;;4.32;;
52434;SDS011;38354;52.892;6.148;2023-04-29T10:48:42;10.10;;;5.20;;
52434;SDS011;38354;52.892;6.148;2023-04-29T10:51:08;9.00;;;5.32;;
52434;SDS011;38354;52.892;6.148;2023-04-29T10:53:33;9.55;;;5.10;;
52434;SDS011;38354;52.892;6.148;2023-04-29T10:56:08;10.35;;;4.68;;
52434;SDS011;38354;52.892;6.148;2023-04-29T10:58:38;9.95;;;5.10;;
52434;SDS011;38354;52.892;6.148;2023-04-29T11:01:09;10.23;;;5.18;;
52434;SDS011;38354;52.892;6.148;2023-04-29T11:03:55;8.75;;;4.63;;
52434;SDS011;38354;52.892;6.148;2023-04-29T11:12:07;10.20;;;4.45;;
52434;SDS011;38354;52.892;6.148;2023-04-29T11:14:36;8.18;;;4.50;;
52434;SDS011;38354;52.892;6.148;2023-04-29T11:17:03;8.35;;;4.97;;
52434;SDS011;38354;52.892;6.148;2023-04-29T11:19:50;12.68;;;4.97;;
52434;SDS011;38354;52.892;6.148;2023-04-29T11:24:52;9.45;;;4.72;;
52434;SDS011;38354;52.892;6.148;2023-04-29T11:27:27;10.48;;;4.18;;
52434;SDS011;38354;52.892;6.148;2023-04-29T11:29:59;10.60;;;4.63;;
52434;SDS011;38354;52.892;6.148;2023-04-29T11:32:26;12.50;;;5.13;;
52434;SDS011;38354;52.892;6.148;2023-04-29T11:34:53;9.15;;;4.72;;
52434;SDS011;38354;52.892;6.148;2023-04-29T11:37:22;10.25;;;4.65;;
52434;SDS011;38354;52.892;6.148;2023-04-29T11:39:49;8.85;;;4.20;;
52434;SDS011;38354;52.892;6.148;2023-04-29T11:42:20;9.20;;;4.30;;
52434;SDS011;38354;52.892;6.148;2023-04-29T11:44:46;8.02;;;3.58;;
52434;SDS011;38354;52.892;6.148;2023-04-29T11:47:16;6.72;;;3.70;;
52434;SDS011;38354;52.892;6.148;2023-04-29T11:49:41;6.47;;;3.40;;
52434;SDS011;38354;52.892;6.148;2023-04-29T11:52:07;7.78;;;3.20;;
52434;SDS011;38354;52.892;6.148;2023-04-29T11:54:34;5.32;;;2.88;;
52434;SDS011;38354;52.892;6.148;2023-04-29T11:56:59;4.38;;;2.72;;
52434;SDS011;38354;52.892;6.148;2023-04-29T11:59:29;6.05;;;2.65;;
52434;SDS011;38354;52.892;6.148;2023-04-29T12:01:56;6.03;;;2.80;;
52434;SDS011;38354;52.892;6.148;2023-04-29T12:04:24;4.43;;;2.58;;
52434;SDS011;38354;52.892;6.148;2023-04-29T12:06:55;5.70;;;3.00;;
52434;SDS011;38354;52.892;6.148;2023-04-29T12:09:22;7.00;;;3.20;;
52434;SDS011;38354;52.892;6.148;2023-04-29T12:11:48;7.43;;;3.08;;
52434;SDS011;38354;52.892;6.148;2023-04-29T12:14:16;7.03;;;3.03;;
52434;SDS011;38354;52.892;6.148;2023-04-29T12:16:43;5.40;;;2.90;;
52434;SDS011;38354;52.892;6.148;2023-04-29T12:19:12;5.60;;;2.83;;
52434;SDS011;38354;52.892;6.148;2023-04-29T12:21:46;6.05;;;2.83;;
52434;SDS011;38354;52.892;6.148;2023-04-29T12:26:38;5.78;;;2.30;;
52434;SDS011;38354;52.892;6.148;2023-04-29T12:29:05;5.53;;;2.28;;
52434;SDS011;38354;52.892;6.148;2023-04-29T12:31:34;5.00;;;2.47;;
52434;SDS011;38354;52.892;6.148;2023-04-29T12:34:02;5.82;;;2.20;;
52434;SDS011;38354;52.892;6.148;2023-04-29T12:36:28;5.45;;;2.30;;
52434;SDS011;38354;52.892;6.148;2023-04-29T12:38:54;6.35;;;2.35;;
52434;SDS011;38354;52.892;6.148;2023-04-29T12:41:34;4.57;;;2.25;;
52434;SDS011;38354;52.892;6.148;2023-04-29T12:44:04;5.25;;;2.30;;
52434;SDS011;38354;52.892;6.148;2023-04-29T12:46:34;4.22;;;2.30;;
52434;SDS011;38354;52.892;6.148;2023-04-29T12:49:04;5.05;;;2.72;;
52434;SDS011;38354;52.892;6.148;2023-04-29T12:51:31;5.55;;;2.25;;
52434;SDS011;38354;52.892;6.148;2023-04-29T12:54:00;6.25;;;2.15;;
52434;SDS011;38354;52.892;6.148;2023-04-29T12:56:28;5.45;;;2.20;;
52434;SDS011;38354;52.892;6.148;2023-04-29T12:58:55;5.93;;;2.30;;
52434;SDS011;38354;52.892;6.148;2023-04-29T13:01:28;4.38;;;2.30;;
52434;SDS011;38354;52.892;6.148;2023-04-29T13:03:54;5.18;;;2.55;;
52434;SDS011;38354;52.892;6.148;2023-04-29T13:06:19;5.28;;;2.30;;
52434;SDS011;38354;52.892;6.148;2023-04-29T13:08:45;5.35;;;2.20;;
52434;SDS011;38354;52.892;6.148;2023-04-29T13:11:11;9.63;;;4.85;;
52434;SDS011;38354;52.892;6.148;2023-04-29T13:13:37;4.55;;;2.60;;
52434;SDS011;38354;52.892;6.148;2023-04-29T13:16:03;6.45;;;3.17;;
52434;SDS011;38354;52.892;6.148;2023-04-29T13:18:29;5.25;;;2.50;;
52434;SDS011;38354;52.892;6.148;2023-04-29T13:20:55;4.45;;;2.72;;
52434;SDS011;38354;52.892;6.148;2023-04-29T13:23:20;6.22;;;2.58;;
52434;SDS011;38354;52.892;6.148;2023-04-29T13:25:46;5.05;;;2.28;;
52434;SDS011;38354;52.892;6.148;2023-04-29T13:28:14;6.55;;;2.38;;
52434;SDS011;38354;52.892;6.148;2023-04-29T13:30:40;5.72;;;2.42;;
52434;SDS011;38354;52.892;6.148;2023-04-29T13:33:10;3.75;;;2.00;;
52434;SDS011;38354;52.892;6.148;2023-04-29T13:35:37;5.47;;;2.03;;
52434;SDS011;38354;52.892;6.148;2023-04-29T13:38:04;6.18;;;2.72;;
52434;SDS011;38354;52.892;6.148;2023-04-29T13:40:30;7.28;;;2.60;;
52434;SDS011;38354;52.892;6.148;2023-04-29T13:42:55;4.55;;;1.83;;
52434;SDS011;38354;52.892;6.148;2023-04-29T13:45:21;9.88;;;4.30;;
52434;SDS011;38354;52.892;6.148;2023-04-29T13:47:47;6.18;;;2.22;;
52434;SDS011;38354;52.892;6.148;2023-04-29T13:50:12;4.32;;;1.77;;
52434;SDS011;38354;52.892;6.148;2023-04-29T13:52:38;5.35;;;1.75;;
52434;SDS011;38354;52.892;6.148;2023-04-29T13:55:04;4.38;;;1.90;;
52434;SDS011;38354;52.892;6.148;2023-04-29T13:57:32;4.85;;;1.63;;
52434;SDS011;38354;52.892;6.148;2023-04-29T13:59:58;4.13;;;1.60;;
52434;SDS011;38354;52.892;6.148;2023-04-29T14:02:23;5.03;;;2.05;;
52434;SDS011;38354;52.892;6.148;2023-04-29T14:04:49;4.20;;;1.88;;
52434;SDS011;38354;52.892;6.148;2023-04-29T14:07:15;3.78;;;1.50;;
52434;SDS011;38354;52.892;6.148;2023-04-29T14:09:41;3.78;;;1.70;;
52434;SDS011;38354;52.892;6.148;2023-04-29T14:12:07;7.68;;;2.55;;
52434;SDS011;38354;52.892;6.148;2023-04-29T14:14:32;7.63;;;1.50;;
52434;SDS011;38354;52.892;6.148;2023-04-29T14:16:58;7.38;;;2.25;;
52434;SDS011;38354;52.892;6.148;2023-04-29T14:19:25;6.47;;;1.63;;
52434;SDS011;38354;52.892;6.148;2023-04-29T14:21:51;4.50;;;2.63;;
52434;SDS011;38354;52.892;6.148;2023-04-29T14:24:16;5.60;;;2.40;;
52434;SDS011;38354;52.892;6.148;2023-04-29T14:26:42;3.33;;;1.80;;
52434;SDS011;38354;52.892;6.148;2023-04-29T14:29:08;3.58;;;1.85;;
52434;SDS011;38354;52.892;6.148;2023-04-29T14:31:34;4.00;;;1.98;;
52434;SDS011;38354;52.892;6.148;2023-04-29T14:34:02;4.40;;;1.80;;
52434;SDS011;38354;52.892;6.148;2023-04-29T14:36:28;2.83;;;1.70;;
52434;SDS011;38354;52.892;6.148;2023-04-29T14:38:54;4.38;;;1.83;;
52434;SDS011;38354;52.892;6.148;2023-04-29T14:41:20;5.65;;;2.30;;
52434;SDS011;38354;52.892;6.148;2023-04-29T14:43:45;5.13;;;2.38;;
52434;SDS011;38354;52.892;6.148;2023-04-29T14:46:11;5.47;;;2.65;;
52434;SDS011;38354;52.892;6.148;2023-04-29T14:48:37;6.30;;;2.20;;
52434;SDS011;38354;52.892;6.148;2023-04-29T14:51:03;4.38;;;2.22;;
52434;SDS011;38354;52.892;6.148;2023-04-29T14:53:30;7.25;;;2.78;;
52434;SDS011;38354;52.892;6.148;2023-04-29T14:55:56;6.55;;;2.47;;
52434;SDS011;38354;52.892;6.148;2023-04-29T14:58:22;4.88;;;2.67;;
52434;SDS011;38354;52.892;6.148;2023-04-29T15:00:47;4.72;;;2.80;;
52434;SDS011;38354;52.892;6.148;2023-04-29T15:03:15;5.40;;;2.78;;
52434;SDS011;38354;52.892;6.148;2023-04-29T15:05:41;5.05;;;3.03;;
52434;SDS011;38354;52.892;6.148;2023-04-29T15:08:07;5.10;;;2.70;;
52434;SDS011;38354;52.892;6.148;2023-04-29T15:10:32;5.30;;;2.97;;
52434;SDS011;38354;52.892;6.148;2023-04-29T15:12:58;5.13;;;2.58;;
52434;SDS011;38354;52.892;6.148;2023-04-29T15:15:25;4.47;;;2.30;;
52434;SDS011;38354;52.892;6.148;2023-04-29T15:17:50;4.32;;;2.65;;
52434;SDS011;38354;52.892;6.148;2023-04-29T15:20:16;4.40;;;2.30;;
52434;SDS011;38354;52.892;6.148;2023-04-29T15:22:42;3.58;;;2.22;;
52434;SDS011;38354;52.892;6.148;2023-04-29T15:25:07;5.63;;;2.60;;
52434;SDS011;38354;52.892;6.148;2023-04-29T15:27:34;5.60;;;2.90;;
52434;SDS011;38354;52.892;6.148;2023-04-29T15:30:00;5.45;;;3.05;;
52434;SDS011;38354;52.892;6.148;2023-04-29T15:32:27;6.40;;;3.60;;
52434;SDS011;38354;52.892;6.148;2023-04-29T15:35:02;6.25;;;3.28;;
52434;SDS011;38354;52.892;6.148;2023-04-29T15:37:28;8.13;;;4.13;;
52434;SDS011;38354;52.892;6.148;2023-04-29T15:39:55;6.68;;;3.67;;
52434;SDS011;38354;52.892;6.148;2023-04-29T15:42:23;5.68;;;3.63;;
52434;SDS011;38354;52.892;6.148;2023-04-29T15:44:49;8.93;;;4.60;;
52434;SDS011;38354;52.892;6.148;2023-04-29T15:47:15;9.45;;;4.53;;
52434;SDS011;38354;52.892;6.148;2023-04-29T15:49:41;12.30;;;5.07;;
52434;SDS011;38354;52.892;6.148;2023-04-29T15:52:07;8.45;;;5.00;;
52434;SDS011;38354;52.892;6.148;2023-04-29T15:54:33;7.00;;;4.38;;
52434;SDS011;38354;52.892;6.148;2023-04-29T15:56:58;9.05;;;4.63;;
52434;SDS011;38354;52.892;6.148;2023-04-29T15:59:25;7.65;;;4.68;;
52434;SDS011;38354;52.892;6.148;2023-04-29T16:01:50;11.27;;;5.05;;
52434;SDS011;38354;52.892;6.148;2023-04-29T16:04:16;12.27;;;5.45;;
52434;SDS011;38354;52.892;6.148;2023-04-29T16:06:42;9.02;;;5.05;;
52434;SDS011;38354;52.892;6.148;2023-04-29T16:09:07;9.05;;;5.15;;
52434;SDS011;38354;52.892;6.148;2023-04-29T16:11:33;12.25;;;5.90;;
52434;SDS011;38354;52.892;6.148;2023-04-29T16:13:59;9.60;;;5.43;;
52434;SDS011;38354;52.892;6.148;2023-04-29T16:16:24;12.95;;;6.22;;
52434;SDS011;38354;52.892;6.148;2023-04-29T16:18:50;10.07;;;5.63;;
52434;SDS011;38354;52.892;6.148;2023-04-29T16:21:16;10.05;;;5.63;;
52434;SDS011;38354;52.892;6.148;2023-04-29T16:23:42;10.50;;;5.65;;
52434;SDS011;38354;52.892;6.148;2023-04-29T16:26:08;8.80;;;5.70;;
52434;SDS011;38354;52.892;6.148;2023-04-29T16:28:34;10.25;;;5.68;;
52434;SDS011;38354;52.892;6.148;2023-04-29T16:31:01;12.63;;;6.40;;
52434;SDS011;38354;52.892;6.148;2023-04-29T16:33:26;12.70;;;7.05;;
52434;SDS011;38354;52.892;6.148;2023-04-29T16:35:52;14.05;;;6.05;;
52434;SDS011;38354;52.892;6.148;2023-04-29T16:38:22;10.57;;;5.80;;
52434;SDS011;38354;52.892;6.148;2023-04-29T16:40:49;10.57;;;5.45;;
52434;SDS011;38354;52.892;6.148;2023-04-29T16:43:15;13.90;;;5.07;;
52434;SDS011;38354;52.892;6.148;2023-04-29T16:45:40;8.05;;;4.50;;
52434;SDS011;38354;52.892;6.148;2023-04-29T16:48:07;9.38;;;4.82;;
52434;SDS011;38354;52.892;6.148;2023-04-29T16:50:33;9.70;;;4.80;;
52434;SDS011;38354;52.892;6.148;2023-04-29T16:53:04;10.18;;;4.32;;
52434;SDS011;38354;52.892;6.148;2023-04-29T16:55:30;10.70;;;5.13;;
52434;SDS011;38354;52.892;6.148;2023-04-29T16:57:56;10.10;;;5.03;;
52434;SDS011;38354;52.892;6.148;2023-04-29T17:00:22;8.57;;;5.25;;
52434;SDS011;38354;52.892;6.148;2023-04-29T17:02:48;9.77;;;5.15;;
52434;SDS011;38354;52.892;6.148;2023-04-29T17:05:14;10.38;;;5.25;;
52434;SDS011;38354;52.892;6.148;2023-04-29T17:07:43;9.43;;;5.72;;
52434;SDS011;38354;52.892;6.148;2023-04-29T17:10:09;9.63;;;5.30;;
52434;SDS011;38354;52.892;6.148;2023-04-29T17:12:35;11.93;;;5.80;;
52434;SDS011;38354;52.892;6.148;2023-04-29T17:15:02;9.82;;;5.32;;
52434;SDS011;38354;52.892;6.148;2023-04-29T17:17:28;9.02;;;5.63;;
52434;SDS011;38354;52.892;6.148;2023-04-29T17:19:54;10.25;;;5.28;;
52434;SDS011;38354;52.892;6.148;2023-04-29T17:22:20;11.43;;;5.15;;
52434;SDS011;38354;52.892;6.148;2023-04-29T17:24:46;8.98;;;4.65;;
52434;SDS011;38354;52.892;6.148;2023-04-29T17:27:12;11.82;;;4.65;;
52434;SDS011;38354;52.892;6.148;2023-04-29T17:29:38;11.88;;;5.15;;
52434;SDS011;38354;52.892;6.148;2023-04-29T17:32:04;10.77;;;4.85;;
52434;SDS011;38354;52.892;6.148;2023-04-29T17:37:24;10.77;;;4.70;;
52434;SDS011;38354;52.892;6.148;2023-04-29T17:39:50;10.23;;;4.72;;
52434;SDS011;38354;52.892;6.148;2023-04-29T17:42:19;13.07;;;4.63;;
52434;SDS011;38354;52.892;6.148;2023-04-29T17:44:45;10.27;;;4.43;;
52434;SDS011;38354;52.892;6.148;2023-04-29T17:47:11;9.65;;;4.93;;
52434;SDS011;38354;52.892;6.148;2023-04-29T17:49:38;11.38;;;4.10;;
52434;SDS011;38354;52.892;6.148;2023-04-29T17:52:04;10.70;;;4.60;;
52434;SDS011;38354;52.892;6.148;2023-04-29T17:54:30;9.60;;;4.55;;
52434;SDS011;38354;52.892;6.148;2023-04-29T17:56:55;9.23;;;4.68;;
52434;SDS011;38354;52.892;6.148;2023-04-29T17:59:22;8.55;;;4.53;;
52434;SDS011;38354;52.892;6.148;2023-04-29T18:01:49;10.60;;;4.80;;
52434;SDS011;38354;52.892;6.148;2023-04-29T18:04:14;8.50;;;4.20;;
52434;SDS011;38354;52.892;6.148;2023-04-29T18:06:40;8.70;;;4.28;;
52434;SDS011;38354;52.892;6.148;2023-04-29T18:09:06;10.27;;;4.75;;
52434;SDS011;38354;52.892;6.148;2023-04-29T18:11:31;9.50;;;4.38;;
52434;SDS011;38354;52.892;6.148;2023-04-29T18:13:57;7.43;;;3.92;;
52434;SDS011;38354;52.892;6.148;2023-04-29T18:16:23;9.75;;;4.20;;
52434;SDS011;38354;52.892;6.148;2023-04-29T18:18:49;9.75;;;4.70;;
52434;SDS011;38354;52.892;6.148;2023-04-29T18:21:18;8.20;;;3.75;;
52434;SDS011;38354;52.892;6.148;2023-04-29T18:23:46;7.82;;;4.00;;
52434;SDS011;38354;52.892;6.148;2023-04-29T18:26:12;7.22;;;4.05;;
52434;SDS011;38354;52.892;6.148;2023-04-29T18:28:38;10.25;;;4.60;;
52434;SDS011;38354;52.892;6.148;2023-04-29T18:31:03;8.85;;;5.13;;
52434;SDS011;38354;52.892;6.148;2023-04-29T18:33:29;9.98;;;4.10;;
52434;SDS011;38354;52.892;6.148;2023-04-29T18:35:55;10.77;;;4.35;;
52434;SDS011;38354;52.892;6.148;2023-04-29T18:38:21;8.57;;;3.83;;
52434;SDS011;38354;52.892;6.148;2023-04-29T18:40:46;8.10;;;4.32;;
52434;SDS011;38354;52.892;6.148;2023-04-29T18:43:12;6.82;;;3.97;;
52434;SDS011;38354;52.892;6.148;2023-04-29T18:45:42;11.98;;;4.68;;
52434;SDS011;38354;52.892;6.148;2023-04-29T18:48:09;9.30;;;4.38;;
52434;SDS011;38354;52.892;6.148;2023-04-29T18:50:36;10.27;;;4.13;;
52434;SDS011;38354;52.892;6.148;2023-04-29T18:53:04;7.82;;;4.05;;
52434;SDS011;38354;52.892;6.148;2023-04-29T18:55:30;9.95;;;4.60;;
52434;SDS011;38354;52.892;6.148;2023-04-29T18:57:56;8.65;;;4.70;;